sensor_id;sensor_type;location;lat;lon;timestamp;P1;durP1;ratioP1;P2;durP2;ratioP2
57231;SDS011;43488;46.934;8.276;2023-06-22T00:00:11;740.47;;;435.25;;
57231;SDS011;43488;46.934;8.276;2023-06-22T00:02:39;738.20;;;454.33;;
57231;SDS011;43488;46.934;8.276;2023-06-22T00:05:06;719.03;;;376.33;;
57231;SDS011;43488;46.934;8.276;2023-06-22T00:07:34;721.40;;;376.30;;
57231;SDS011;43488;46.934;8.276;2023-06-22T00:10:01;736.28;;;443.58;;
57231;SDS011;43488;46.934;8.276;2023-06-22T00:14:59;717.63;;;362.98;;
57231;SDS011;43488;46.934;8.276;2023-06-22T00:17:27;717.45;;;371.77;;
57231;SDS011;43488;46.934;8.276;2023-06-22T00:19:54;722.72;;;370.00;;
57231;SDS011;43488;46.934;8.276;2023-06-22T00:22:21;738.00;;;448.63;;
57231;SDS011;43488;46.934;8.276;2023-06-22T00:24:55;718.40;;;377.33;;
57231;SDS011;43488;46.934;8.276;2023-06-22T00:27:23;716.20;;;374.02;;
57231;SDS011;43488;46.934;8.276;2023-06-22T00:29:50;737.60;;;441.98;;
57231;SDS011;43488;46.934;8.276;2023-06-22T00:32:17;723.08;;;385.40;;
57231;SDS011;43488;46.934;8.276;2023-06-22T00:34:45;737.50;;;442.20;;
57231;SDS011;43488;46.934;8.276;2023-06-22T00:37:12;735.65;;;446.17;;
57231;SDS011;43488;46.934;8.276;2023-06-22T00:39:39;738.08;;;442.75;;
57231;SDS011;43488;46.934;8.276;2023-06-22T00:42:08;737.05;;;447.70;;
57231;SDS011;43488;46.934;8.276;2023-06-22T00:44:35;731.28;;;451.55;;
57231;SDS011;43488;46.934;8.276;2023-06-22T00:47:03;712.10;;;375.30;;
57231;SDS011;43488;46.934;8.276;2023-06-22T00:49:31;725.13;;;441.15;;
57231;SDS011;43488;46.934;8.276;2023-06-22T00:51:58;725.80;;;441.58;;
57231;SDS011;43488;46.934;8.276;2023-06-22T00:54:25;728.15;;;442.42;;
57231;SDS011;43488;46.934;8.276;2023-06-22T00:56:55;725.97;;;447.58;;
57231;SDS011;43488;46.934;8.276;2023-06-22T00:59:23;713.10;;;368.05;;
57231;SDS011;43488;46.934;8.276;2023-06-22T01:01:52;705.90;;;371.38;;
57231;SDS011;43488;46.934;8.276;2023-06-22T01:04:20;709.17;;;370.83;;
57231;SDS011;43488;46.934;8.276;2023-06-22T01:16:31;723.40;;;438.90;;
57231;SDS011;43488;46.934;8.276;2023-06-22T01:19:06;720.17;;;444.48;;
57231;SDS011;43488;46.934;8.276;2023-06-22T01:21:43;701.90;;;365.17;;
57231;SDS011;43488;46.934;8.276;2023-06-22T01:24:18;704.22;;;438.00;;
57231;SDS011;43488;46.934;8.276;2023-06-22T01:29:43;696.63;;;374.33;;
57231;SDS011;43488;46.934;8.276;2023-06-22T01:32:11;715.50;;;441.98;;
57231;SDS011;43488;46.934;8.276;2023-06-22T01:34:39;713.47;;;448.60;;
57231;SDS011;43488;46.934;8.276;2023-06-22T01:37:08;694.38;;;366.77;;
57231;SDS011;43488;46.934;8.276;2023-06-22T01:39:35;701.90;;;380.17;;
57231;SDS011;43488;46.934;8.276;2023-06-22T01:42:06;701.17;;;370.63;;
57231;SDS011;43488;46.934;8.276;2023-06-22T01:44:33;697.05;;;373.67;;
57231;SDS011;43488;46.934;8.276;2023-06-22T01:47:01;714.60;;;442.80;;
57231;SDS011;43488;46.934;8.276;2023-06-22T01:49:29;707.88;;;443.00;;
57231;SDS011;43488;46.934;8.276;2023-06-22T01:51:57;700.35;;;373.88;;
57231;SDS011;43488;46.934;8.276;2023-06-22T01:54:25;710.85;;;445.60;;
57231;SDS011;43488;46.934;8.276;2023-06-22T01:56:52;695.05;;;372.75;;
57231;SDS011;43488;46.934;8.276;2023-06-22T02:02:04;708.30;;;439.38;;
57231;SDS011;43488;46.934;8.276;2023-06-22T02:04:37;700.15;;;375.52;;
57231;SDS011;43488;46.934;8.276;2023-06-22T02:07:19;694.35;;;370.95;;
57231;SDS011;43488;46.934;8.276;2023-06-22T02:09:50;694.42;;;374.70;;
57231;SDS011;43488;46.934;8.276;2023-06-22T02:12:21;692.17;;;365.63;;
57231;SDS011;43488;46.934;8.276;2023-06-22T02:14:51;709.88;;;444.70;;
57231;SDS011;43488;46.934;8.276;2023-06-22T02:17:20;711.30;;;443.15;;
57231;SDS011;43488;46.934;8.276;2023-06-22T02:19:48;693.83;;;369.60;;
57231;SDS011;43488;46.934;8.276;2023-06-22T02:22:15;688.92;;;368.65;;
57231;SDS011;43488;46.934;8.276;2023-06-22T02:24:42;670.63;;;368.55;;
57231;SDS011;43488;46.934;8.276;2023-06-22T02:27:10;671.17;;;373.00;;
57231;SDS011;43488;46.934;8.276;2023-06-22T02:29:37;674.10;;;373.48;;
57231;SDS011;43488;46.934;8.276;2023-06-22T02:32:04;668.42;;;362.05;;
57231;SDS011;43488;46.934;8.276;2023-06-22T02:34:32;679.20;;;382.52;;
57231;SDS011;43488;46.934;8.276;2023-06-22T02:37:00;687.80;;;444.27;;
57231;SDS011;43488;46.934;8.276;2023-06-22T02:39:29;678.75;;;379.23;;
57231;SDS011;43488;46.934;8.276;2023-06-22T02:41:57;685.10;;;433.95;;
57231;SDS011;43488;46.934;8.276;2023-06-22T02:44:24;678.35;;;374.42;;
57231;SDS011;43488;46.934;8.276;2023-06-22T02:46:51;678.83;;;371.52;;
57231;SDS011;43488;46.934;8.276;2023-06-22T02:49:20;686.17;;;443.85;;
57231;SDS011;43488;46.934;8.276;2023-06-22T02:51:47;681.08;;;431.08;;
57231;SDS011;43488;46.934;8.276;2023-06-22T02:54:15;653.47;;;358.88;;
57231;SDS011;43488;46.934;8.276;2023-06-22T02:56:43;625.00;;;354.45;;
57231;SDS011;43488;46.934;8.276;2023-06-22T02:59:10;666.70;;;442.63;;
57231;SDS011;43488;46.934;8.276;2023-06-22T03:01:38;668.38;;;368.83;;
57231;SDS011;43488;46.934;8.276;2023-06-22T03:04:08;671.50;;;435.27;;
57231;SDS011;43488;46.934;8.276;2023-06-22T03:06:36;671.28;;;433.17;;
57231;SDS011;43488;46.934;8.276;2023-06-22T03:09:03;675.13;;;439.02;;
57231;SDS011;43488;46.934;8.276;2023-06-22T03:11:31;681.85;;;435.52;;
57231;SDS011;43488;46.934;8.276;2023-06-22T03:14:00;671.50;;;438.17;;
57231;SDS011;43488;46.934;8.276;2023-06-22T03:16:28;663.38;;;362.80;;
57231;SDS011;43488;46.934;8.276;2023-06-22T03:18:55;681.30;;;442.63;;
57231;SDS011;43488;46.934;8.276;2023-06-22T03:21:23;663.38;;;363.10;;
57231;SDS011;43488;46.934;8.276;2023-06-22T03:23:50;673.17;;;375.90;;
57231;SDS011;43488;46.934;8.276;2023-06-22T03:26:18;673.03;;;368.00;;
57231;SDS011;43488;46.934;8.276;2023-06-22T03:28:45;674.72;;;369.65;;
57231;SDS011;43488;46.934;8.276;2023-06-22T03:31:13;669.38;;;364.27;;
57231;SDS011;43488;46.934;8.276;2023-06-22T03:33:40;673.03;;;370.48;;
57231;SDS011;43488;46.934;8.276;2023-06-22T03:36:08;683.30;;;440.15;;
57231;SDS011;43488;46.934;8.276;2023-06-22T03:38:35;670.88;;;367.60;;
57231;SDS011;43488;46.934;8.276;2023-06-22T03:41:02;685.58;;;432.55;;
57231;SDS011;43488;46.934;8.276;2023-06-22T03:43:29;679.80;;;437.17;;
57231;SDS011;43488;46.934;8.276;2023-06-22T03:45:57;682.95;;;436.65;;
57231;SDS011;43488;46.934;8.276;2023-06-22T03:48:24;673.08;;;364.70;;
57231;SDS011;43488;46.934;8.276;2023-06-22T03:50:52;667.88;;;359.42;;
57231;SDS011;43488;46.934;8.276;2023-06-22T03:53:20;681.42;;;437.73;;
57231;SDS011;43488;46.934;8.276;2023-06-22T03:55:52;678.50;;;431.75;;
57231;SDS011;43488;46.934;8.276;2023-06-22T03:58:19;680.40;;;436.88;;
57231;SDS011;43488;46.934;8.276;2023-06-22T04:00:48;673.85;;;362.33;;
57231;SDS011;43488;46.934;8.276;2023-06-22T04:03:21;680.88;;;433.98;;
57231;SDS011;43488;46.934;8.276;2023-06-22T04:05:48;671.03;;;362.08;;
57231;SDS011;43488;46.934;8.276;2023-06-22T04:08:15;680.67;;;439.52;;
57231;SDS011;43488;46.934;8.276;2023-06-22T04:10:44;670.47;;;361.05;;
57231;SDS011;43488;46.934;8.276;2023-06-22T04:13:11;678.00;;;428.42;;
57231;SDS011;43488;46.934;8.276;2023-06-22T04:15:39;680.90;;;438.15;;
57231;SDS011;43488;46.934;8.276;2023-06-22T04:18:06;672.25;;;370.45;;
57231;SDS011;43488;46.934;8.276;2023-06-22T04:20:33;682.33;;;433.15;;
57231;SDS011;43488;46.934;8.276;2023-06-22T04:23:01;677.95;;;434.27;;
57231;SDS011;43488;46.934;8.276;2023-06-22T04:25:28;677.63;;;433.42;;
57231;SDS011;43488;46.934;8.276;2023-06-22T04:27:55;681.00;;;435.48;;
57231;SDS011;43488;46.934;8.276;2023-06-22T04:30:22;669.78;;;364.25;;
57231;SDS011;43488;46.934;8.276;2023-06-22T04:32:50;677.95;;;434.20;;
57231;SDS011;43488;46.934;8.276;2023-06-22T04:35:24;676.22;;;370.58;;
57231;SDS011;43488;46.934;8.276;2023-06-22T04:37:52;679.97;;;442.45;;
57231;SDS011;43488;46.934;8.276;2023-06-22T04:40:23;676.78;;;370.80;;
57231;SDS011;43488;46.934;8.276;2023-06-22T04:42:50;676.15;;;433.30;;
57231;SDS011;43488;46.934;8.276;2023-06-22T04:45:20;674.60;;;367.58;;
57231;SDS011;43488;46.934;8.276;2023-06-22T04:47:47;674.83;;;374.10;;
57231;SDS011;43488;46.934;8.276;2023-06-22T04:50:16;676.10;;;428.92;;
57231;SDS011;43488;46.934;8.276;2023-06-22T04:52:44;673.80;;;373.27;;
57231;SDS011;43488;46.934;8.276;2023-06-22T04:55:12;676.38;;;374.48;;
57231;SDS011;43488;46.934;8.276;2023-06-22T04:57:45;675.22;;;375.13;;
57231;SDS011;43488;46.934;8.276;2023-06-22T05:00:16;683.83;;;438.93;;
57231;SDS011;43488;46.934;8.276;2023-06-22T05:02:49;680.45;;;442.17;;
57231;SDS011;43488;46.934;8.276;2023-06-22T05:05:16;668.35;;;363.73;;
57231;SDS011;43488;46.934;8.276;2023-06-22T05:07:44;672.55;;;368.67;;
57231;SDS011;43488;46.934;8.276;2023-06-22T05:10:14;684.05;;;436.25;;
57231;SDS011;43488;46.934;8.276;2023-06-22T05:12:42;669.90;;;369.35;;
57231;SDS011;43488;46.934;8.276;2023-06-22T05:15:10;681.75;;;436.95;;
57231;SDS011;43488;46.934;8.276;2023-06-22T05:17:37;668.55;;;370.45;;
57231;SDS011;43488;46.934;8.276;2023-06-22T05:20:24;679.65;;;434.27;;
57231;SDS011;43488;46.934;8.276;2023-06-22T05:22:51;680.70;;;438.25;;
57231;SDS011;43488;46.934;8.276;2023-06-22T05:25:19;677.28;;;377.30;;
57231;SDS011;43488;46.934;8.276;2023-06-22T05:27:46;669.60;;;369.10;;
57231;SDS011;43488;46.934;8.276;2023-06-22T05:30:14;687.25;;;447.85;;
57231;SDS011;43488;46.934;8.276;2023-06-22T05:32:42;679.90;;;436.92;;
57231;SDS011;43488;46.934;8.276;2023-06-22T05:35:10;676.10;;;371.58;;
57231;SDS011;43488;46.934;8.276;2023-06-22T05:37:37;681.53;;;444.80;;
57231;SDS011;43488;46.934;8.276;2023-06-22T05:40:05;682.67;;;441.58;;
57231;SDS011;43488;46.934;8.276;2023-06-22T05:42:34;672.40;;;374.77;;
57231;SDS011;43488;46.934;8.276;2023-06-22T05:45:01;688.30;;;445.73;;
57231;SDS011;43488;46.934;8.276;2023-06-22T05:47:29;686.88;;;449.27;;
57231;SDS011;43488;46.934;8.276;2023-06-22T05:49:56;675.85;;;374.02;;
57231;SDS011;43488;46.934;8.276;2023-06-22T05:52:24;673.75;;;371.88;;
57231;SDS011;43488;46.934;8.276;2023-06-22T05:54:51;689.10;;;447.73;;
57231;SDS011;43488;46.934;8.276;2023-06-22T05:57:19;690.28;;;454.13;;
57231;SDS011;43488;46.934;8.276;2023-06-22T05:59:48;687.58;;;441.27;;
57231;SDS011;43488;46.934;8.276;2023-06-22T06:02:15;680.33;;;382.38;;
57231;SDS011;43488;46.934;8.276;2023-06-22T06:04:42;675.45;;;377.10;;
57231;SDS011;43488;46.934;8.276;2023-06-22T06:07:10;682.63;;;388.30;;
57231;SDS011;43488;46.934;8.276;2023-06-22T06:09:37;686.60;;;443.63;;
57231;SDS011;43488;46.934;8.276;2023-06-22T06:12:04;673.38;;;374.80;;
57231;SDS011;43488;46.934;8.276;2023-06-22T06:14:32;687.65;;;447.55;;
57231;SDS011;43488;46.934;8.276;2023-06-22T06:16:59;696.60;;;465.52;;
57231;SDS011;43488;46.934;8.276;2023-06-22T06:19:26;694.10;;;454.23;;
57231;SDS011;43488;46.934;8.276;2023-06-22T06:21:54;688.15;;;381.75;;
57231;SDS011;43488;46.934;8.276;2023-06-22T06:24:21;702.28;;;445.92;;
57231;SDS011;43488;46.934;8.276;2023-06-22T06:26:49;690.50;;;387.02;;
57231;SDS011;43488;46.934;8.276;2023-06-22T06:29:16;701.25;;;443.92;;
57231;SDS011;43488;46.934;8.276;2023-06-22T06:31:43;683.92;;;382.85;;
57231;SDS011;43488;46.934;8.276;2023-06-22T06:34:10;687.47;;;386.77;;
57231;SDS011;43488;46.934;8.276;2023-06-22T06:36:38;702.55;;;452.45;;
57231;SDS011;43488;46.934;8.276;2023-06-22T06:39:05;685.72;;;385.70;;
57231;SDS011;43488;46.934;8.276;2023-06-22T06:41:32;700.97;;;450.08;;
57231;SDS011;43488;46.934;8.276;2023-06-22T06:44:00;694.00;;;386.92;;
57231;SDS011;43488;46.934;8.276;2023-06-22T06:46:27;703.20;;;453.23;;
57231;SDS011;43488;46.934;8.276;2023-06-22T06:48:55;699.05;;;445.92;;
57231;SDS011;43488;46.934;8.276;2023-06-22T06:51:22;700.80;;;452.50;;
57231;SDS011;43488;46.934;8.276;2023-06-22T06:53:50;693.10;;;445.33;;
57231;SDS011;43488;46.934;8.276;2023-06-22T06:56:17;684.90;;;391.75;;
57231;SDS011;43488;46.934;8.276;2023-06-22T06:58:44;687.08;;;400.23;;
57231;SDS011;43488;46.934;8.276;2023-06-22T07:01:12;679.53;;;393.42;;
57231;SDS011;43488;46.934;8.276;2023-06-22T07:03:40;686.67;;;397.02;;
57231;SDS011;43488;46.934;8.276;2023-06-22T07:06:08;696.20;;;454.80;;
57231;SDS011;43488;46.934;8.276;2023-06-22T07:08:35;689.90;;;448.50;;
57231;SDS011;43488;46.934;8.276;2023-06-22T07:11:03;670.38;;;416.08;;
57231;SDS011;43488;46.934;8.276;2023-06-22T07:13:30;659.50;;;395.38;;
57231;SDS011;43488;46.934;8.276;2023-06-22T07:15:58;663.08;;;453.45;;
57231;SDS011;43488;46.934;8.276;2023-06-22T07:18:25;689.42;;;448.55;;
57231;SDS011;43488;46.934;8.276;2023-06-22T07:20:53;688.28;;;448.45;;
57231;SDS011;43488;46.934;8.276;2023-06-22T07:23:20;692.15;;;454.65;;
57231;SDS011;43488;46.934;8.276;2023-06-22T07:25:47;688.38;;;396.55;;
57231;SDS011;43488;46.934;8.276;2023-06-22T07:28:16;694.25;;;451.63;;
57231;SDS011;43488;46.934;8.276;2023-06-22T07:30:44;693.97;;;457.15;;
57231;SDS011;43488;46.934;8.276;2023-06-22T07:33:11;660.88;;;450.75;;
57231;SDS011;43488;46.934;8.276;2023-06-22T07:35:39;677.00;;;403.75;;
57231;SDS011;43488;46.934;8.276;2023-06-22T07:38:06;671.20;;;384.17;;
57231;SDS011;43488;46.934;8.276;2023-06-22T07:40:33;674.42;;;398.23;;
57231;SDS011;43488;46.934;8.276;2023-06-22T07:43:02;673.33;;;393.15;;
57231;SDS011;43488;46.934;8.276;2023-06-22T07:45:29;682.40;;;460.83;;
57231;SDS011;43488;46.934;8.276;2023-06-22T07:47:59;678.53;;;457.38;;
57231;SDS011;43488;46.934;8.276;2023-06-22T07:50:27;681.72;;;444.17;;
57231;SDS011;43488;46.934;8.276;2023-06-22T07:52:54;700.05;;;456.00;;
57231;SDS011;43488;46.934;8.276;2023-06-22T07:55:22;688.80;;;408.98;;
57231;SDS011;43488;46.934;8.276;2023-06-22T07:57:49;713.80;;;459.88;;
57231;SDS011;43488;46.934;8.276;2023-06-22T08:00:18;715.78;;;469.95;;
57231;SDS011;43488;46.934;8.276;2023-06-22T08:02:46;700.38;;;405.08;;
57231;SDS011;43488;46.934;8.276;2023-06-22T08:05:14;702.78;;;410.85;;
57231;SDS011;43488;46.934;8.276;2023-06-22T08:07:42;689.75;;;400.65;;
57231;SDS011;43488;46.934;8.276;2023-06-22T08:10:10;650.30;;;405.83;;
57231;SDS011;43488;46.934;8.276;2023-06-22T08:12:40;674.57;;;456.97;;
57231;SDS011;43488;46.934;8.276;2023-06-22T08:15:18;674.63;;;476.75;;
57231;SDS011;43488;46.934;8.276;2023-06-22T08:17:45;660.08;;;409.13;;
57231;SDS011;43488;46.934;8.276;2023-06-22T08:20:14;666.40;;;455.52;;
57231;SDS011;43488;46.934;8.276;2023-06-22T08:22:41;665.25;;;409.45;;
57231;SDS011;43488;46.934;8.276;2023-06-22T08:25:10;678.65;;;465.83;;
57231;SDS011;43488;46.934;8.276;2023-06-22T08:27:38;682.35;;;464.20;;
57231;SDS011;43488;46.934;8.276;2023-06-22T08:30:06;682.03;;;405.20;;
57231;SDS011;43488;46.934;8.276;2023-06-22T08:32:34;675.13;;;405.77;;
57231;SDS011;43488;46.934;8.276;2023-06-22T08:35:01;684.00;;;457.13;;
57231;SDS011;43488;46.934;8.276;2023-06-22T08:37:28;685.45;;;465.23;;
57231;SDS011;43488;46.934;8.276;2023-06-22T08:40:03;671.97;;;412.08;;
57231;SDS011;43488;46.934;8.276;2023-06-22T08:42:32;671.97;;;412.13;;
57231;SDS011;43488;46.934;8.276;2023-06-22T08:44:59;669.72;;;417.05;;
57231;SDS011;43488;46.934;8.276;2023-06-22T08:47:27;667.75;;;459.83;;
57231;SDS011;43488;46.934;8.276;2023-06-22T08:49:55;666.83;;;412.20;;
57231;SDS011;43488;46.934;8.276;2023-06-22T08:52:22;681.50;;;456.63;;
57231;SDS011;43488;46.934;8.276;2023-06-22T08:54:50;649.38;;;463.80;;
57231;SDS011;43488;46.934;8.276;2023-06-22T08:57:18;678.10;;;413.98;;
57231;SDS011;43488;46.934;8.276;2023-06-22T08:59:47;656.08;;;468.85;;
57231;SDS011;43488;46.934;8.276;2023-06-22T09:02:14;666.22;;;418.80;;
57231;SDS011;43488;46.934;8.276;2023-06-22T09:04:41;646.25;;;475.90;;
57231;SDS011;43488;46.934;8.276;2023-06-22T09:07:08;644.70;;;466.75;;
57231;SDS011;43488;46.934;8.276;2023-06-22T09:09:36;644.22;;;417.48;;
57231;SDS011;43488;46.934;8.276;2023-06-22T09:12:04;652.80;;;470.80;;
57231;SDS011;43488;46.934;8.276;2023-06-22T09:14:32;648.00;;;470.73;;
57231;SDS011;43488;46.934;8.276;2023-06-22T09:16:59;654.40;;;423.08;;
57231;SDS011;43488;46.934;8.276;2023-06-22T09:19:27;659.47;;;425.85;;
57231;SDS011;43488;46.934;8.276;2023-06-22T09:21:54;660.78;;;467.25;;
57231;SDS011;43488;46.934;8.276;2023-06-22T09:24:21;659.30;;;428.20;;
57231;SDS011;43488;46.934;8.276;2023-06-22T09:26:48;663.40;;;435.17;;
57231;SDS011;43488;46.934;8.276;2023-06-22T09:29:16;649.97;;;428.27;;
57231;SDS011;43488;46.934;8.276;2023-06-22T09:31:44;642.42;;;475.27;;
57231;SDS011;43488;46.934;8.276;2023-06-22T09:34:11;653.83;;;441.40;;
57231;SDS011;43488;46.934;8.276;2023-06-22T09:36:38;649.75;;;436.83;;
57231;SDS011;43488;46.934;8.276;2023-06-22T09:39:07;637.78;;;425.25;;
57231;SDS011;43488;46.934;8.276;2023-06-22T09:41:35;644.30;;;436.23;;
57231;SDS011;43488;46.934;8.276;2023-06-22T09:44:02;636.15;;;469.45;;
57231;SDS011;43488;46.934;8.276;2023-06-22T09:46:29;657.22;;;470.08;;
57231;SDS011;43488;46.934;8.276;2023-06-22T09:48:57;648.65;;;421.63;;
57231;SDS011;43488;46.934;8.276;2023-06-22T09:51:24;648.72;;;473.30;;
57231;SDS011;43488;46.934;8.276;2023-06-22T09:53:51;657.13;;;431.35;;
57231;SDS011;43488;46.934;8.276;2023-06-22T09:56:23;660.60;;;429.95;;
57231;SDS011;43488;46.934;8.276;2023-06-22T09:58:53;663.15;;;434.45;;
57231;SDS011;43488;46.934;8.276;2023-06-22T10:01:21;661.05;;;471.27;;
57231;SDS011;43488;46.934;8.276;2023-06-22T10:03:49;634.22;;;417.90;;
57231;SDS011;43488;46.934;8.276;2023-06-22T10:06:16;639.03;;;435.17;;
57231;SDS011;43488;46.934;8.276;2023-06-22T10:08:44;629.17;;;469.42;;
57231;SDS011;43488;46.934;8.276;2023-06-22T10:11:11;620.42;;;459.00;;
57231;SDS011;43488;46.934;8.276;2023-06-22T10:13:38;642.58;;;433.23;;
57231;SDS011;43488;46.934;8.276;2023-06-22T10:16:05;628.78;;;466.20;;
57231;SDS011;43488;46.934;8.276;2023-06-22T10:18:33;639.20;;;430.85;;
57231;SDS011;43488;46.934;8.276;2023-06-22T10:21:01;635.92;;;476.88;;
57231;SDS011;43488;46.934;8.276;2023-06-22T10:23:29;645.22;;;445.73;;
57231;SDS011;43488;46.934;8.276;2023-06-22T10:25:57;646.63;;;440.17;;
57231;SDS011;43488;46.934;8.276;2023-06-22T10:28:24;642.53;;;437.58;;
57231;SDS011;43488;46.934;8.276;2023-06-22T10:30:51;634.20;;;483.52;;
57231;SDS011;43488;46.934;8.276;2023-06-22T10:33:19;653.67;;;485.00;;
57231;SDS011;43488;46.934;8.276;2023-06-22T10:35:46;626.25;;;468.27;;
57231;SDS011;43488;46.934;8.276;2023-06-22T10:38:14;627.53;;;471.00;;
57231;SDS011;43488;46.934;8.276;2023-06-22T10:40:41;642.67;;;436.45;;
57231;SDS011;43488;46.934;8.276;2023-06-22T10:43:08;653.40;;;457.63;;
57231;SDS011;43488;46.934;8.276;2023-06-22T10:45:35;652.90;;;472.30;;
57231;SDS011;43488;46.934;8.276;2023-06-22T10:48:03;654.72;;;440.02;;
57231;SDS011;43488;46.934;8.276;2023-06-22T10:50:30;656.15;;;483.13;;
57231;SDS011;43488;46.934;8.276;2023-06-22T10:52:58;656.72;;;491.45;;
57231;SDS011;43488;46.934;8.276;2023-06-22T10:55:25;648.17;;;469.70;;
57231;SDS011;43488;46.934;8.276;2023-06-22T10:57:52;653.95;;;449.27;;
57231;SDS011;43488;46.934;8.276;2023-06-22T11:00:20;665.67;;;432.15;;
57231;SDS011;43488;46.934;8.276;2023-06-22T11:02:47;670.22;;;485.00;;
57231;SDS011;43488;46.934;8.276;2023-06-22T11:05:15;648.63;;;478.77;;
57231;SDS011;43488;46.934;8.276;2023-06-22T11:07:45;637.95;;;479.75;;
57231;SDS011;43488;46.934;8.276;2023-06-22T11:10:12;656.95;;;479.40;;
57231;SDS011;43488;46.934;8.276;2023-06-22T11:12:40;677.28;;;440.38;;
57231;SDS011;43488;46.934;8.276;2023-06-22T11:15:09;676.67;;;431.63;;
57231;SDS011;43488;46.934;8.276;2023-06-22T11:17:36;670.95;;;430.40;;
57231;SDS011;43488;46.934;8.276;2023-06-22T11:20:05;658.50;;;477.00;;
57231;SDS011;43488;46.934;8.276;2023-06-22T11:22:39;639.40;;;486.58;;
57231;SDS011;43488;46.934;8.276;2023-06-22T11:25:07;642.65;;;436.35;;
57231;SDS011;43488;46.934;8.276;2023-06-22T11:27:35;644.30;;;440.33;;
57231;SDS011;43488;46.934;8.276;2023-06-22T11:30:03;629.00;;;473.90;;
57231;SDS011;43488;46.934;8.276;2023-06-22T11:32:34;648.65;;;452.35;;
57231;SDS011;43488;46.934;8.276;2023-06-22T11:35:02;640.17;;;479.65;;
57231;SDS011;43488;46.934;8.276;2023-06-22T11:37:30;648.95;;;448.65;;
57231;SDS011;43488;46.934;8.276;2023-06-22T11:39:57;651.55;;;446.90;;
57231;SDS011;43488;46.934;8.276;2023-06-22T11:42:25;648.15;;;446.88;;
57231;SDS011;43488;46.934;8.276;2023-06-22T11:44:56;627.47;;;469.15;;
57231;SDS011;43488;46.934;8.276;2023-06-22T11:47:24;631.92;;;477.85;;
57231;SDS011;43488;46.934;8.276;2023-06-22T11:49:52;629.95;;;481.58;;
57231;SDS011;43488;46.934;8.276;2023-06-22T11:52:20;649.30;;;451.92;;
57231;SDS011;43488;46.934;8.276;2023-06-22T11:54:47;641.55;;;470.33;;
57231;SDS011;43488;46.934;8.276;2023-06-22T11:57:15;636.63;;;474.65;;
57231;SDS011;43488;46.934;8.276;2023-06-22T11:59:42;651.80;;;459.52;;
57231;SDS011;43488;46.934;8.276;2023-06-22T12:02:10;634.63;;;480.77;;
57231;SDS011;43488;46.934;8.276;2023-06-22T12:04:37;640.67;;;477.38;;
57231;SDS011;43488;46.934;8.276;2023-06-22T12:07:04;638.75;;;493.05;;
57231;SDS011;43488;46.934;8.276;2023-06-22T12:09:32;659.72;;;458.20;;
57231;SDS011;43488;46.934;8.276;2023-06-22T12:12:00;665.22;;;449.30;;
57231;SDS011;43488;46.934;8.276;2023-06-22T12:14:28;658.38;;;454.30;;
57231;SDS011;43488;46.934;8.276;2023-06-22T12:16:55;653.88;;;454.77;;
57231;SDS011;43488;46.934;8.276;2023-06-22T12:19:23;653.40;;;466.35;;
57231;SDS011;43488;46.934;8.276;2023-06-22T12:21:50;656.00;;;469.58;;
57231;SDS011;43488;46.934;8.276;2023-06-22T12:24:17;656.17;;;481.52;;
57231;SDS011;43488;46.934;8.276;2023-06-22T12:26:45;685.90;;;482.92;;
57231;SDS011;43488;46.934;8.276;2023-06-22T12:29:12;674.95;;;444.23;;
57231;SDS011;43488;46.934;8.276;2023-06-22T12:31:40;681.08;;;482.75;;
57231;SDS011;43488;46.934;8.276;2023-06-22T12:34:10;672.20;;;442.52;;
57231;SDS011;43488;46.934;8.276;2023-06-22T12:36:38;673.20;;;448.83;;
57231;SDS011;43488;46.934;8.276;2023-06-22T12:39:05;677.25;;;461.65;;
57231;SDS011;43488;46.934;8.276;2023-06-22T12:41:32;663.58;;;482.05;;
57231;SDS011;43488;46.934;8.276;2023-06-22T12:44:00;636.17;;;470.92;;
57231;SDS011;43488;46.934;8.276;2023-06-22T12:46:27;626.15;;;481.52;;
57231;SDS011;43488;46.934;8.276;2023-06-22T12:48:54;705.22;;;487.15;;
57231;SDS011;43488;46.934;8.276;2023-06-22T12:51:21;697.00;;;465.15;;
57231;SDS011;43488;46.934;8.276;2023-06-22T12:53:50;705.60;;;479.30;;
57231;SDS011;43488;46.934;8.276;2023-06-22T12:56:17;704.50;;;484.05;;
57231;SDS011;43488;46.934;8.276;2023-06-22T12:58:47;707.58;;;484.77;;
57231;SDS011;43488;46.934;8.276;2023-06-22T13:01:14;692.25;;;449.23;;
57231;SDS011;43488;46.934;8.276;2023-06-22T13:03:44;695.53;;;451.20;;
57231;SDS011;43488;46.934;8.276;2023-06-22T13:06:11;693.63;;;444.08;;
57231;SDS011;43488;46.934;8.276;2023-06-22T13:08:38;707.75;;;486.00;;
57231;SDS011;43488;46.934;8.276;2023-06-22T13:11:06;698.85;;;483.55;;
57231;SDS011;43488;46.934;8.276;2023-06-22T13:13:33;698.00;;;468.48;;
57231;SDS011;43488;46.934;8.276;2023-06-22T13:16:00;683.92;;;435.25;;
57231;SDS011;43488;46.934;8.276;2023-06-22T13:18:28;686.60;;;471.58;;
57231;SDS011;43488;46.934;8.276;2023-06-22T13:20:55;681.00;;;478.33;;
57231;SDS011;43488;46.934;8.276;2023-06-22T13:23:24;651.33;;;421.95;;
57231;SDS011;43488;46.934;8.276;2023-06-22T13:25:51;656.72;;;425.20;;
57231;SDS011;43488;46.934;8.276;2023-06-22T13:28:19;659.45;;;422.58;;
57231;SDS011;43488;46.934;8.276;2023-06-22T13:30:47;673.92;;;478.58;;
57231;SDS011;43488;46.934;8.276;2023-06-22T13:33:14;671.65;;;423.10;;
57231;SDS011;43488;46.934;8.276;2023-06-22T13:35:42;678.03;;;427.20;;
57231;SDS011;43488;46.934;8.276;2023-06-22T13:38:09;688.95;;;464.50;;
57231;SDS011;43488;46.934;8.276;2023-06-22T13:40:36;672.25;;;431.52;;
57231;SDS011;43488;46.934;8.276;2023-06-22T13:43:04;675.85;;;419.10;;
57231;SDS011;43488;46.934;8.276;2023-06-22T13:45:32;664.28;;;415.45;;
57231;SDS011;43488;46.934;8.276;2023-06-22T13:47:59;669.17;;;418.38;;
57231;SDS011;43488;46.934;8.276;2023-06-22T13:50:27;697.10;;;465.17;;
57231;SDS011;43488;46.934;8.276;2023-06-22T13:52:55;690.17;;;454.65;;
57231;SDS011;43488;46.934;8.276;2023-06-22T13:55:23;693.15;;;456.77;;
57231;SDS011;43488;46.934;8.276;2023-06-22T13:57:50;681.00;;;407.00;;
57231;SDS011;43488;46.934;8.276;2023-06-22T14:00:18;697.55;;;463.88;;
57231;SDS011;43488;46.934;8.276;2023-06-22T14:02:45;696.40;;;455.70;;
57231;SDS011;43488;46.934;8.276;2023-06-22T14:05:14;688.88;;;417.90;;
57231;SDS011;43488;46.934;8.276;2023-06-22T14:07:41;699.95;;;462.38;;
57231;SDS011;43488;46.934;8.276;2023-06-22T14:10:08;683.03;;;417.73;;
57231;SDS011;43488;46.934;8.276;2023-06-22T14:12:36;681.45;;;409.08;;
57231;SDS011;43488;46.934;8.276;2023-06-22T14:15:06;686.60;;;423.00;;
57231;SDS011;43488;46.934;8.276;2023-06-22T14:17:34;688.63;;;429.92;;